Time;durP1;ratioP1;P1;durP2;ratioP2;P2;SDS_P1;SDS_P2;PMS_P1;PMS_P2;Temp;Humidity;BMP_temperature;BMP_pressure;BME280_temperature;BME280_humidity;BME280_pressure;Samples;Min_cycle;Max_cycle;Signal;HPM_P1;HPM_P2
2021/01/03 00:00:28;;;;;;;3.05;0.93;;;22.40;88.00;;;;;;5067491;28;20024;-63
2021/01/03 00:02:56;;;;;;;1.98;0.80;;;22.40;88.30;;;;;;5067406;28;20510;-61
2021/01/03 00:05:30;;;;;;;3.95;1.02;;;22.50;88.70;;;;;;5070182;28;20339;-59
2021/01/03 00:07:58;;;;;;;3.78;1.02;;;22.50;88.70;;;;;;5070879;28;20024;-64
2021/01/03 00:10:26;;;;;;;4.40;1.20;;;22.50;89.20;;;;;;5069248;28;20552;-56
2021/01/03 00:12:54;;;;;;;2.45;0.90;;;22.50;88.10;;;;;;5065730;28;20021;-56
2021/01/03 00:15:22;;;;;;;3.85;1.45;;;22.50;88.10;;;;;;5070779;28;20479;-58
2021/01/03 00:17:50;;;;;;;4.13;1.00;;;22.60;88.20;;;;;;5070883;28;20051;-48
2021/01/03 00:20:24;;;;;;;3.30;1.23;;;22.60;88.20;;;;;;5067651;28;20052;-58
2021/01/03 00:22:53;;;;;;;3.05;0.90;;;22.60;87.90;;;;;;5066697;28;20028;-60
2021/01/03 00:25:24;;;;;;;3.08;1.00;;;22.60;88.10;;;;;;5070225;28;20078;-61
2021/01/03 00:27:52;;;;;;;3.63;1.35;;;22.60;88.60;;;;;;5070633;28;20035;-62
2021/01/03 00:30:26;;;;;;;2.25;1.10;;;22.60;89.00;;;;;;5069819;28;20032;-63
2021/01/03 00:32:54;;;;;;;2.17;0.98;;;22.60;88.90;;;;;;5067062;28;20028;-63
2021/01/03 00:35:33;;;;;;;3.80;1.02;;;22.70;88.10;;;;;;5070394;28;20028;-63
2021/01/03 00:38:06;;;;;;;3.85;0.90;;;22.70;87.90;;;;;;5070991;28;20024;-65
2021/01/03 00:40:35;;;;;;;3.08;1.17;;;22.70;88.20;;;;;;5068836;28;20086;-59
2021/01/03 00:43:03;;;;;;;4.68;1.45;;;22.70;88.30;;;;;;5067489;28;20082;-63
2021/01/03 00:45:30;;;;;;;4.82;0.98;;;22.70;88.10;;;;;;5070376;28;20475;-62
2021/01/03 00:47:58;;;;;;;3.92;1.27;;;22.80;88.20;;;;;;5066127;28;20113;-60
2021/01/03 00:50:26;;;;;;;4.68;0.95;;;22.80;87.90;;;;;;5069802;28;20032;-59
2021/01/03 00:52:54;;;;;;;3.33;1.35;;;22.80;88.20;;;;;;5066563;28;20035;-60
2021/01/03 00:55:23;;;;;;;5.47;1.20;;;22.90;88.60;;;;;;5070029;28;20028;-58
2021/01/03 00:57:51;;;;;;;4.88;1.45;;;22.90;88.40;;;;;;5068882;28;20020;-66
2021/01/03 01:00:25;;;;;;;2.05;1.02;;;22.90;87.90;;;;;;5069626;28;20070;-63
2021/01/03 01:02:53;;;;;;;6.25;1.13;;;23.00;88.70;;;;;;5066420;28;20031;-62
2021/01/03 01:05:21;;;;;;;3.55;1.58;;;23.00;87.70;;;;;;5070018;28;20044;-66
2021/01/03 01:07:49;;;;;;;5.00;1.20;;;23.00;89.20;;;;;;5070064;28;20020;-56
2021/01/03 01:10:29;;;;;;;1.77;0.80;;;23.00;88.40;;;;;;5069572;28;20032;-63
2021/01/03 01:13:00;;;;;;;2.88;1.13;;;23.10;87.70;;;;;;5064983;28;20029;-63
2021/01/03 01:15:30;;;;;;;2.08;0.90;;;23.10;87.50;;;;;;5069870;28;20047;-56
2021/01/03 01:18:02;;;;;;;2.97;1.42;;;23.10;87.90;;;;;;5070359;28;20124;-56
2021/01/03 01:20:31;;;;;;;4.13;1.30;;;23.20;87.80;;;;;;5069501;28;20052;-61
2021/01/03 01:23:00;;;;;;;4.72;1.83;;;23.20;87.20;;;;;;5067808;28;20032;-57
2021/01/03 01:25:30;;;;;;;3.65;1.45;;;23.30;87.50;;;;;;5071961;28;20112;-56
2021/01/03 01:27:58;;;;;;;4.50;1.38;;;23.30;87.90;;;;;;5073506;28;20035;-61
2021/01/03 01:30:27;;;;;;;2.28;1.15;;;23.30;86.90;;;;;;5072737;28;20027;-61
2021/01/03 01:32:56;;;;;;;2.03;0.90;;;23.30;86.50;;;;;;5070063;28;20066;-66
2021/01/03 01:35:27;;;;;;;2.35;0.90;;;23.30;86.80;;;;;;5072685;28;20024;-56
2021/01/03 01:37:55;;;;;;;2.83;1.25;;;23.30;86.20;;;;;;5073323;28;20029;-59
2021/01/03 01:40:29;;;;;;;1.38;1.00;;;23.40;86.80;;;;;;5072493;28;20036;-64
2021/01/03 01:42:57;;;;;;;3.03;1.50;;;23.40;85.90;;;;;;5069542;28;20039;-57
2021/01/03 01:45:29;;;;;;;3.58;1.40;;;23.40;87.10;;;;;;5073274;28;20035;-59
2021/01/03 01:48:12;;;;;;;4.05;1.42;;;23.50;87.30;;;;;;5073309;28;20063;-59
2021/01/03 01:50:45;;;;;;;3.15;1.33;;;23.50;86.10;;;;;;5071494;28;20042;-61
2021/01/03 01:53:22;;;;;;;4.50;1.30;;;23.50;86.00;;;;;;5071231;28;20052;-58
2021/01/03 01:56:01;;;;;;;1.42;0.77;;;23.50;86.00;;;;;;5072915;28;20037;-60
2021/01/03 01:59:02;;;;;;;6.40;1.10;;;23.50;85.40;;;;;;5073266;28;20479;-62
2021/01/03 02:01:38;;;;;;;4.10;1.10;;;23.60;86.10;;;;;;5095105;28;20040;-64
2021/01/03 02:04:46;;;;;;;2.92;1.08;;;23.60;85.70;;;;;;5069384;28;20483;-62
2021/01/03 02:07:22;;;;;;;3.08;0.90;;;23.60;86.30;;;;;;5071235;28;20052;-62
2021/01/03 02:09:49;;;;;;;6.05;1.20;;;23.60;84.90;;;;;;5072294;28;20033;-64
2021/01/03 02:12:38;;;;;;;2.55;1.27;;;23.60;85.80;;;;;;5068663;28;20062;-58
2021/01/03 02:15:12;;;;;;;2.42;1.00;;;23.70;85.50;;;;;;5072619;28;20722;-62
2021/01/03 02:17:43;;;;;;;2.95;1.13;;;23.70;85.40;;;;;;5072408;28;20039;-48
2021/01/03 02:20:12;;;;;;;3.33;1.52;;;23.60;85.10;;;;;;5072150;28;20131;-60
2021/01/03 02:22:54;;;;;;;4.28;1.60;;;23.60;86.20;;;;;;5068592;28;20024;-59
2021/01/03 02:25:22;;;;;;;4.70;1.60;;;23.70;86.70;;;;;;5070916;28;20131;-58
2021/01/03 02:28:13;;;;;;;4.63;1.65;;;23.70;86.40;;;;;;5072227;28;20027;-61
2021/01/03 02:30:43;;;;;;;2.13;0.98;;;23.70;85.50;;;;;;5067074;28;20036;-58
2021/01/03 02:33:20;;;;;;;3.70;1.63;;;23.70;85.20;;;;;;5069368;28;20120;-61
2021/01/03 02:35:50;;;;;;;6.82;1.25;;;23.70;85.40;;;;;;5070587;28;20059;-58
2021/01/03 02:38:23;;;;;;;2.53;1.30;;;23.70;85.00;;;;;;5071911;28;20504;-61
2021/01/03 02:40:50;;;;;;;3.28;1.25;;;23.80;85.50;;;;;;5068790;28;20487;-58
2021/01/03 02:43:18;;;;;;;2.40;1.42;;;23.80;85.40;;;;;;5071101;28;20488;-58
2021/01/03 02:45:46;;;;;;;2.67;1.20;;;23.90;85.60;;;;;;5071353;28;20094;-51
2021/01/03 02:48:22;;;;;;;4.03;1.33;;;23.90;84.80;;;;;;5072164;28;20024;-59
2021/01/03 02:50:50;;;;;;;3.78;1.27;;;23.90;85.60;;;;;;5068536;28;20399;-55
2021/01/03 02:53:20;;;;;;;5.65;1.50;;;24.00;85.00;;;;;;5071292;28;20049;-57
2021/01/03 02:55:47;;;;;;;6.15;1.45;;;24.10;85.70;;;;;;5070554;28;20089;-65
2021/01/03 02:58:15;;;;;;;5.00;1.10;;;24.10;84.10;;;;;;5070607;28;20483;-66
2021/01/03 03:00:43;;;;;;;5.18;1.52;;;24.10;84.40;;;;;;5069744;28;20782;-61
2021/01/03 03:03:11;;;;;;;3.40;1.33;;;24.10;84.40;;;;;;5069686;28;20062;-58
2021/01/03 03:05:38;;;;;;;3.97;1.05;;;24.20;84.50;;;;;;5070634;28;20047;-65
2021/01/03 03:08:06;;;;;;;4.88;1.30;;;24.20;83.60;;;;;;5071334;28;20029;-63
2021/01/03 03:10:34;;;;;;;6.15;1.48;;;24.30;83.40;;;;;;5070395;28;20102;-62
2021/01/03 03:13:02;;;;;;;3.80;1.30;;;24.30;83.40;;;;;;5068048;28;20471;-66
2021/01/03 03:15:32;;;;;;;6.60;1.40;;;24.30;83.50;;;;;;5070708;28;20029;-62
2021/01/03 03:18:00;;;;;;;2.38;1.33;;;24.40;83.70;;;;;;5071485;28;20097;-62
2021/01/03 03:20:28;;;;;;;3.35;1.23;;;24.40;83.60;;;;;;5070929;28;20045;-57
2021/01/03 03:22:56;;;;;;;7.70;1.45;;;24.50;83.70;;;;;;5067904;28;20052;-60
2021/01/03 03:25:23;;;;;;;7.38;1.50;;;24.50;83.70;;;;;;5066892;28;20521;-57
2021/01/03 03:27:51;;;;;;;6.18;1.50;;;24.50;83.40;;;;;;5071268;28;20124;-56
2021/01/03 03:30:21;;;;;;;3.33;1.58;;;24.50;83.00;;;;;;5071113;28;20082;-65
2021/01/03 03:32:52;;;;;;;6.80;1.33;;;24.50;83.50;;;;;;5067184;28;20037;-62
2021/01/03 03:35:37;;;;;;;7.60;1.67;;;24.60;82.40;;;;;;5070832;28;20107;-59
2021/01/03 03:38:07;;;;;;;3.28;1.00;;;24.60;83.20;;;;;;5070803;28;20035;-57
2021/01/03 03:40:38;;;;;;;2.88;1.20;;;24.70;83.10;;;;;;5069146;28;20047;-59
2021/01/03 03:43:06;;;;;;;3.40;1.30;;;24.60;82.50;;;;;;5069028;28;20111;-58
2021/01/03 03:45:34;;;;;;;3.00;1.35;;;24.70;82.30;;;;;;5070296;28;20037;-55
2021/01/03 03:48:01;;;;;;;2.53;1.25;;;24.70;82.50;;;;;;5069960;28;20044;-54
2021/01/03 03:50:29;;;;;;;2.55;1.23;;;24.80;82.50;;;;;;5069717;28;20029;-62
2021/01/03 03:52:56;;;;;;;3.88;1.27;;;24.80;82.10;;;;;;5067966;28;20439;-58
2021/01/03 03:55:23;;;;;;;3.90;1.38;;;24.80;82.90;;;;;;5070535;28;20447;-59
2021/01/03 03:57:51;;;;;;;2.13;1.10;;;24.90;82.70;;;;;;5070749;28;20028;-52
2021/01/03 04:00:22;;;;;;;3.55;1.23;;;24.90;82.00;;;;;;5071013;28;20025;-60
2021/01/03 04:02:50;;;;;;;1.88;0.93;;;24.90;81.50;;;;;;5066902;28;20072;-60
2021/01/03 04:05:24;;;;;;;3.47;1.35;;;24.90;82.00;;;;;;5070944;28;20171;-57
2021/01/03 04:07:52;;;;;;;1.70;1.00;;;24.90;81.90;;;;;;5070183;28;20056;-61
2021/01/03 04:10:20;;;;;;;2.13;1.20;;;25.00;81.60;;;;;;5071119;28;20082;-62
2021/01/03 04:12:48;;;;;;;6.85;1.65;;;24.90;81.70;;;;;;5066843;28;20024;-57
2021/01/03 04:15:18;;;;;;;4.20;1.38;;;24.90;82.10;;;;;;5070863;28;20048;-57
2021/01/03 04:17:45;;;;;;;3.60;1.40;;;25.00;81.70;;;;;;5070224;28;20021;-60
2021/01/03 04:20:17;;;;;;;1.98;1.08;;;25.10;81.90;;;;;;5070619;28;20076;-64
2021/01/03 04:22:46;;;;;;;2.35;1.17;;;25.10;81.50;;;;;;5067081;28;20025;-58
2021/01/03 04:25:14;;;;;;;3.30;1.75;;;25.10;81.80;;;;;;5070307;28;20041;-52
2021/01/03 04:27:42;;;;;;;3.78;1.40;;;25.20;81.40;;;;;;5070177;28;20035;-63
2021/01/03 04:30:11;;;;;;;2.05;1.20;;;25.20;81.40;;;;;;5070675;28;20028;-66
2021/01/03 04:32:38;;;;;;;2.53;1.10;;;25.20;81.20;;;;;;5066984;28;20154;-52
2021/01/03 04:35:07;;;;;;;5.35;1.25;;;25.20;81.30;;;;;;5070307;28;20031;-57
2021/01/03 04:37:35;;;;;;;3.30;1.25;;;25.20;81.60;;;;;;5069645;28;20043;-59
2021/01/03 04:40:03;;;;;;;4.05;1.25;;;25.30;81.40;;;;;;5070409;28;20020;-54
2021/01/03 04:42:33;;;;;;;7.15;1.33;;;25.30;80.90;;;;;;5066779;28;20020;-54
2021/01/03 04:45:12;;;;;;;3.25;1.20;;;25.40;81.40;;;;;;5070472;28;20040;-62
2021/01/03 04:48:03;;;;;;;18.25;3.38;;;25.30;80.80;;;;;;5070149;28;20561;-61
2021/01/03 04:50:50;;;;;;;4.28;1.23;;;25.40;81.10;;;;;;5070172;28;20029;-58
2021/01/03 04:53:35;;;;;;;2.92;1.02;;;25.30;81.00;;;;;;5069779;28;20029;-65
2021/01/03 04:56:33;;;;;;;3.83;1.65;;;25.30;81.30;;;;;;5068244;28;20033;-56
2021/01/03 04:59:28;;;;;;;2.13;1.25;;;25.30;81.30;;;;;;5070686;28;20028;-65
2021/01/03 05:02:23;;;;;;;4.65;1.67;;;25.20;81.40;;;;;;5071402;28;20121;-65
2021/01/03 05:05:02;;;;;;;4.35;1.48;;;25.20;81.60;;;;;;5075176;28;20078;-64
2021/01/03 05:07:39;;;;;;;3.20;1.23;;;25.10;81.80;;;;;;5075057;28;20040;-63
2021/01/03 05:10:20;;;;;;;2.75;1.23;;;25.10;82.10;;;;;;5075306;28;20017;-66
2021/01/03 05:13:21;;;;;;;4.28;1.13;;;25.10;82.00;;;;;;5075134;28;20085;-65
2021/01/03 05:15:48;;;;;;;4.45;1.30;;;25.10;82.10;;;;;;5074615;28;20049;-66
2021/01/03 05:18:16;;;;;;;3.90;1.45;;;25.00;82.80;;;;;;5074952;28;20025;-60
2021/01/03 05:20:57;;;;;;;4.22;1.17;;;25.00;82.70;;;;;;5074834;28;20391;-66
2021/01/03 05:23:27;;;;;;;4.65;1.77;;;25.00;82.70;;;;;;5074793;28;20032;-58
2021/01/03 05:25:56;;;;;;;5.88;1.58;;;24.90;82.90;;;;;;5073534;28;20036;-65
2021/01/03 05:28:26;;;;;;;7.20;1.58;;;24.90;83.00;;;;;;5073969;28;20359;-65
2021/01/03 05:31:08;;;;;;;4.00;1.60;;;24.90;83.10;;;;;;5074977;28;20379;-64
2021/01/03 05:33:36;;;;;;;5.30;1.83;;;24.90;83.70;;;;;;5074950;28;20021;-60
2021/01/03 05:36:03;;;;;;;4.50;1.50;;;24.80;83.90;;;;;;5074678;28;20025;-65
2021/01/03 05:38:40;;;;;;;3.28;1.35;;;24.80;83.80;;;;;;5074754;28;20359;-63
2021/01/03 05:41:42;;;;;;;4.80;1.63;;;24.80;84.00;;;;;;5074600;28;20021;-60
2021/01/03 05:44:13;;;;;;;3.53;1.27;;;24.70;83.70;;;;;;5070595;28;20060;-62
2021/01/03 05:46:44;;;;;;;;;;;24.70;84.00;;;;;;5075112;28;20036;-63
2021/01/03 05:49:22;;;;;;;4.03;1.40;;;24.70;84.10;;;;;;5074729;28;20374;-61
2021/01/03 05:52:04;;;;;;;8.02;1.70;;;24.70;84.10;;;;;;5074465;28;20210;-64
2021/01/03 05:54:33;;;;;;;;;;;24.60;84.60;;;;;;5063455;28;20021;-55
2021/01/03 05:57:11;;;;;;;6.57;1.73;;;24.50;84.70;;;;;;5070837;28;19916;-53
2021/01/03 05:59:40;;;;;;;5.38;1.27;;;24.60;84.60;;;;;;5071501;28;20020;-58
2021/01/03 06:02:10;;;;;;;5.72;1.48;;;24.60;84.80;;;;;;5072738;28;20024;-55
2021/01/03 06:04:38;;;;;;;5.55;1.58;;;24.50;84.80;;;;;;5066723;28;20463;-53
2021/01/03 06:07:35;;;;;;;4.10;1.60;;;24.60;84.80;;;;;;5073355;28;20128;-55
2021/01/03 06:10:27;;;;;;;6.53;1.75;;;24.60;84.80;;;;;;5064489;28;20036;-55
2021/01/03 06:13:02;;;;;;;5.23;1.80;;;24.60;84.70;;;;;;5071286;28;20048;-58
2021/01/03 06:15:34;;;;;;;5.15;1.25;;;24.60;84.60;;;;;;5067050;28;20284;-55
2021/01/03 06:18:01;;;;;;;5.65;1.60;;;24.60;84.80;;;;;;5072727;28;20021;-57
2021/01/03 06:20:31;;;;;;;4.20;1.40;;;24.60;84.70;;;;;;5072592;28;20045;-58
2021/01/03 06:23:07;;;;;;;5.47;1.27;;;24.60;84.70;;;;;;5071590;28;20027;-63
2021/01/03 06:25:50;;;;;;;4.07;1.30;;;24.60;84.70;;;;;;5059895;28;20063;-57
2021/01/03 06:28:23;;;;;;;3.45;1.50;;;24.60;84.80;;;;;;5070223;28;20027;-62
2021/01/03 06:31:28;;;;;;;5.72;1.77;;;24.60;84.90;;;;;;5065458;28;20400;-56
2021/01/03 06:34:15;;;;;;;3.60;1.35;;;24.60;84.80;;;;;;5065503;28;21178;-56
2021/01/03 06:37:10;;;;;;;5.60;1.60;;;24.60;84.70;;;;;;5070219;28;20118;-56
2021/01/03 06:40:07;;;;;;;9.48;1.75;;;24.60;85.10;;;;;;5053733;28;20037;-58
2021/01/03 06:42:44;;;;;;;7.07;1.58;;;24.60;84.90;;;;;;5065772;28;20116;-56
2021/01/03 06:45:14;;;;;;;5.78;1.67;;;24.60;84.80;;;;;;5063082;28;20039;-56
2021/01/03 06:48:05;;;;;;;3.83;1.42;;;24.60;84.80;;;;;;5071948;28;20494;-50
2021/01/03 06:50:39;;;;;;;4.50;1.70;;;24.60;84.90;;;;;;5071607;28;20028;-50
2021/01/03 06:53:27;;;;;;;3.95;1.42;;;24.60;84.70;;;;;;5071403;28;20032;-57
2021/01/03 06:56:00;;;;;;;3.95;1.35;;;24.60;84.90;;;;;;5064743;28;20030;-58
2021/01/03 06:58:30;;;;;;;4.38;1.80;;;24.60;84.80;;;;;;5072080;28;20024;-53
2021/01/03 07:01:29;;;;;;;4.05;1.20;;;24.60;84.90;;;;;;5071889;28;20059;-56
2021/01/03 07:03:59;;;;;;;5.00;1.42;;;24.60;84.80;;;;;;5068135;28;20375;-51
2021/01/03 07:06:35;;;;;;;6.03;1.65;;;24.60;84.80;;;;;;5070782;28;20036;-62
2021/01/03 07:09:09;;;;;;;2.90;1.23;;;24.60;85.00;;;;;;5071800;28;20028;-56
2021/01/03 07:11:58;;;;;;;8.07;1.77;;;24.60;85.10;;;;;;5070151;28;20119;-57
2021/01/03 07:14:26;;;;;;;5.55;1.30;;;24.60;85.00;;;;;;5064201;28;20077;-60
2021/01/03 07:17:08;;;;;;;3.97;1.33;;;24.60;85.00;;;;;;5071412;28;20016;-60
2021/01/03 07:19:56;;;;;;;3.10;1.50;;;24.60;85.00;;;;;;5070696;28;20073;-55
2021/01/03 07:22:53;;;;;;;4.22;1.33;;;24.60;85.20;;;;;;5068381;28;20028;-65
2021/01/03 07:25:24;;;;;;;6.35;1.42;;;24.60;85.00;;;;;;5062592;28;20090;-63
2021/01/03 07:28:08;;;;;;;5.43;1.42;;;24.60;84.90;;;;;;5071515;28;20486;-60
2021/01/03 07:30:49;;;;;;;3.60;1.15;;;24.60;85.00;;;;;;5069277;28;20107;-54
2021/01/03 07:33:28;;;;;;;5.13;1.42;;;24.60;85.10;;;;;;5071261;28;20370;-49
2021/01/03 07:35:55;;;;;;;3.03;1.30;;;24.50;85.00;;;;;;5063368;28;20359;-59
2021/01/03 07:38:31;;;;;;;4.97;1.88;;;24.50;85.40;;;;;;5069753;28;20055;-54
2021/01/03 07:41:05;;;;;;;4.20;1.42;;;24.50;85.30;;;;;;5069796;28;20020;-52
2021/01/03 07:43:56;;;;;;;4.72;1.48;;;24.50;85.50;;;;;;5070319;28;20416;-53
2021/01/03 07:46:41;;;;;;;7.85;1.60;;;24.50;85.50;;;;;;5068678;28;20045;-50
2021/01/03 07:49:29;;;;;;;3.42;1.40;;;24.50;85.30;;;;;;5067917;28;20051;-55
2021/01/03 07:52:01;;;;;;;2.83;1.13;;;24.50;85.50;;;;;;5070675;28;20241;-49
2021/01/03 07:54:29;;;;;;;5.57;2.00;;;24.50;85.50;;;;;;5065488;28;20502;-59
2021/01/03 07:56:57;;;;;;;5.25;1.70;;;24.50;85.50;;;;;;5070120;28;20034;-54
2021/01/03 07:59:24;;;;;;;5.00;1.98;;;24.50;85.70;;;;;;5070238;28;20074;-63
2021/01/03 08:01:55;;;;;;;3.35;1.40;;;24.50;86.40;;;;;;5070581;28;20028;-53
2021/01/03 08:04:24;;;;;;;4.95;1.35;;;24.50;85.90;;;;;;5065834;28;20033;-56
2021/01/03 08:06:51;;;;;;;4.50;1.83;;;24.50;86.10;;;;;;5068754;28;20124;-52
2021/01/03 08:09:27;;;;;;;5.18;1.95;;;24.50;86.20;;;;;;5069401;28;20056;-57
2021/01/03 08:12:26;;;;;;;6.75;2.00;;;24.50;86.30;;;;;;5071033;28;20028;-52
2021/01/03 08:15:07;;;;;;;6.60;1.85;;;24.40;86.50;;;;;;5061716;28;20417;-54
2021/01/03 08:17:45;;;;;;;5.60;1.67;;;24.40;86.70;;;;;;5070256;28;20115;-55
2021/01/03 08:20:23;;;;;;;5.75;1.85;;;24.40;86.80;;;;;;5068650;28;20052;-53
2021/01/03 08:22:51;;;;;;;8.32;2.03;;;24.40;86.80;;;;;;5067688;28;20033;-64
2021/01/03 08:25:27;;;;;;;3.88;1.48;;;24.40;86.80;;;;;;5066033;28;20111;-54
2021/01/03 08:28:23;;;;;;;5.15;1.92;;;24.30;86.90;;;;;;5066355;28;20050;-56
2021/01/03 08:30:51;;;;;;;6.63;2.30;;;24.30;87.50;;;;;;5066832;28;20058;-55
2021/01/03 08:33:34;;;;;;;4.03;1.65;;;24.30;87.10;;;;;;5072907;28;20040;-59
2021/01/03 08:36:18;;;;;;;4.63;2.00;;;24.40;87.30;;;;;;5067744;28;20039;-57
2021/01/03 08:38:47;;;;;;;7.53;2.20;;;24.30;87.40;;;;;;5073024;28;20562;-60
2021/01/03 08:41:22;;;;;;;6.95;2.13;;;24.30;87.50;;;;;;5073288;28;20031;-56
2021/01/03 08:43:51;;;;;;;5.85;1.80;;;24.30;87.40;;;;;;5071991;28;20028;-54
2021/01/03 08:46:25;;;;;;;6.63;2.00;;;24.30;87.70;;;;;;5071093;28;20036;-57
2021/01/03 08:49:13;;;;;;;3.85;1.50;;;24.30;87.70;;;;;;5073580;28;20107;-58
2021/01/03 08:51:40;;;;;;;6.05;1.98;;;24.20;87.80;;;;;;5071971;28;20068;-55
2021/01/03 08:54:12;;;;;;;4.05;1.92;;;24.20;87.90;;;;;;5069271;28;20127;-58
2021/01/03 08:56:52;;;;;;;6.85;2.08;;;24.20;87.90;;;;;;5073257;28;20016;-57
2021/01/03 08:59:19;;;;;;;5.80;2.03;;;24.20;88.10;;;;;;5072871;28;20033;-54
2021/01/03 09:01:47;;;;;;;5.28;1.60;;;24.10;88.10;;;;;;5073912;28;20078;-55
2021/01/03 09:04:22;;;;;;;5.57;1.88;;;24.10;88.10;;;;;;5068520;28;20033;-56
2021/01/03 09:06:56;;;;;;;6.20;1.92;;;24.10;88.30;;;;;;5071217;28;20021;-54
2021/01/03 09:09:27;;;;;;;4.57;1.75;;;24.10;88.30;;;;;;5072196;28;20020;-52
2021/01/03 09:12:08;;;;;;;6.05;2.03;;;24.10;88.40;;;;;;5072768;28;20016;-53
2021/01/03 09:14:43;;;;;;;5.95;1.75;;;24.10;88.40;;;;;;5065904;28;20031;-52
2021/01/03 09:17:30;;;;;;;5.55;2.03;;;24.10;88.40;;;;;;5073361;28;20200;-59
2021/01/03 09:20:18;;;;;;;5.43;1.77;;;24.00;88.60;;;;;;5071817;28;20059;-48
2021/01/03 09:22:49;;;;;;;5.10;1.65;;;24.10;88.90;;;;;;5073134;28;20161;-59
2021/01/03 09:25:24;;;;;;;4.50;1.50;;;24.00;88.70;;;;;;5066115;28;20509;-61
2021/01/03 09:27:56;;;;;;;7.75;2.25;;;24.00;88.70;;;;;;5073149;28;20033;-54
2021/01/03 09:30:36;;;;;;;6.95;2.40;;;24.00;88.80;;;;;;5073313;28;20039;-62
2021/01/03 09:33:23;;;;;;;8.65;2.20;;;24.00;89.00;;;;;;5072858;28;20324;-54
2021/01/03 09:36:28;;;;;;;5.82;2.28;;;24.00;89.90;;;;;;5066603;28;20384;-49
2021/01/03 09:39:33;;;;;;;11.57;3.40;;;24.00;90.00;;;;;;5072612;28;20459;-57
2021/01/03 09:42:06;;;;;;;16.27;3.72;;;24.10;89.80;;;;;;5073167;28;20455;-55
2021/01/03 09:44:44;;;;;;;12.75;4.10;;;24.00;89.80;;;;;;5068602;28;20031;-62
2021/01/03 09:47:14;;;;;;;16.63;4.53;;;24.00;89.70;;;;;;5073440;28;20036;-56
2021/01/03 09:49:48;;;;;;;10.55;4.10;;;24.00;89.70;;;;;;5073021;28;20029;-56
2021/01/03 09:52:22;;;;;;;11.15;3.60;;;24.00;89.80;;;;;;5071481;28;20483;-57
2021/01/03 09:54:52;;;;;;;16.08;3.60;;;24.00;90.00;;;;;;5064232;28;20669;-51
2021/01/03 09:57:35;;;;;;;13.98;3.38;;;24.00;90.00;;;;;;5067947;28;20028;-54
2021/01/03 10:00:07;;;;;;;11.05;3.85;;;24.00;90.00;;;;;;5069639;28;20013;-54
2021/01/03 10:02:34;;;;;;;;;;;24.00;90.00;;;;;;5073023;28;20024;-59
2021/01/03 10:05:02;;;;;;;8.82;3.10;;;23.90;90.00;;;;;;5066783;28;20003;-58
2021/01/03 10:07:31;;;;;;;12.85;3.65;;;24.00;90.10;;;;;;5071881;28;20386;-57
2021/01/03 10:10:03;;;;;;;9.65;3.05;;;23.90;90.10;;;;;;5071783;28;20032;-57
2021/01/03 10:12:37;;;;;;;12.98;3.20;;;23.90;90.10;;;;;;5072964;28;20470;-53
2021/01/03 10:15:26;;;;;;;10.45;3.42;;;23.90;90.10;;;;;;5067370;28;20113;-54
2021/01/03 10:18:00;;;;;;;8.73;3.00;;;23.90;90.10;;;;;;5072796;28;20025;-58
2021/01/03 10:20:49;;;;;;;9.60;3.42;;;23.90;90.10;;;;;;5069076;28;20495;-58
2021/01/03 10:23:35;;;;;;;9.52;3.45;;;23.90;90.20;;;;;;5073029;28;20033;-56
2021/01/03 10:26:24;;;;;;;9.52;2.88;;;23.90;90.20;;;;;;5066909;28;20321;-50
2021/01/03 10:28:54;;;;;;;9.82;3.10;;;23.90;90.20;;;;;;5072174;28;20024;-51
2021/01/03 10:31:23;;;;;;;10.88;4.30;;;23.80;90.20;;;;;;5072258;28;20044;-55
2021/01/03 10:33:50;;;;;;;10.18;2.97;;;23.80;90.20;;;;;;5070136;28;20086;-53
2021/01/03 10:36:24;;;;;;;8.00;2.90;;;23.80;90.20;;;;;;5069894;28;20028;-52
2021/01/03 10:38:51;;;;;;;8.35;2.95;;;23.80;90.20;;;;;;5072509;28;20374;-54
2021/01/03 10:41:19;;;;;;;6.70;2.78;;;23.80;90.20;;;;;;5071928;28;20115;-53
2021/01/03 10:43:48;;;;;;;9.57;2.78;;;23.80;90.20;;;;;;5069021;28;20029;-56
2021/01/03 10:46:17;;;;;;;9.70;2.92;;;23.80;90.20;;;;;;5068126;28;20068;-55
2021/01/03 10:48:47;;;;;;;9.27;2.65;;;23.80;90.20;;;;;;5071889;28;20050;-49
2021/01/03 10:51:15;;;;;;;10.32;2.95;;;23.70;90.20;;;;;;5071440;28;20050;-49
2021/01/03 10:53:43;;;;;;;11.05;3.28;;;23.80;90.20;;;;;;5071617;28;20050;-51
2021/01/03 10:56:11;;;;;;;7.65;2.60;;;23.80;90.20;;;;;;5064155;28;20025;-51
2021/01/03 10:58:41;;;;;;;8.75;3.10;;;23.70;90.20;;;;;;5071610;28;20112;-57
2021/01/03 11:01:10;;;;;;;9.68;2.85;;;23.70;90.20;;;;;;5068124;28;20082;-51
2021/01/03 11:03:37;;;;;;;9.38;2.63;;;23.70;90.10;;;;;;5068310;28;20378;-50
2021/01/03 11:06:05;;;;;;;12.30;3.33;;;23.70;90.20;;;;;;5066479;28;20046;-57
2021/01/03 11:08:32;;;;;;;7.95;2.95;;;23.70;90.20;;;;;;5071868;28;20021;-53
2021/01/03 11:10:59;;;;;;;6.93;2.63;;;23.70;90.20;;;;;;5071387;28;20503;-50
2021/01/03 11:13:27;;;;;;;9.65;2.58;;;23.70;90.20;;;;;;5070337;28;20061;-50
2021/01/03 11:15:54;;;;;;;8.27;2.78;;;23.70;90.20;;;;;;5066384;28;20028;-53
2021/01/03 11:18:21;;;;;;;6.25;2.25;;;23.70;90.20;;;;;;5071171;28;20031;-51
2021/01/03 11:20:50;;;;;;;10.25;2.90;;;23.70;90.20;;;;;;5071305;28;20074;-56
2021/01/03 11:23:18;;;;;;;8.05;2.85;;;23.70;90.20;;;;;;5070755;28;20060;-52
2021/01/03 11:25:46;;;;;;;10.38;3.00;;;23.70;90.20;;;;;;5065321;28;20060;-53
2021/01/03 11:28:14;;;;;;;7.10;2.75;;;23.70;90.50;;;;;;5071470;28;20024;-62
2021/01/03 11:30:42;;;;;;;9.45;2.70;;;23.70;90.20;;;;;;5067402;28;20099;-56
2021/01/03 11:33:09;;;;;;;7.30;2.83;;;23.70;90.20;;;;;;5070691;28;20029;-57
2021/01/03 11:35:37;;;;;;;8.40;2.72;;;23.70;90.20;;;;;;5065081;28;20438;-56
2021/01/03 11:38:04;;;;;;;7.20;2.50;;;23.70;90.10;;;;;;5070959;28;20035;-55
2021/01/03 11:40:31;;;;;;;7.38;2.33;;;23.70;90.10;;;;;;5071046;28;20092;-57
2021/01/03 11:42:59;;;;;;;10.38;2.90;;;23.70;90.10;;;;;;5070504;28;20352;-53
2021/01/03 11:45:26;;;;;;;9.65;2.60;;;23.70;90.40;;;;;;5063481;28;20454;-53
2021/01/03 11:47:53;;;;;;;8.82;2.78;;;23.70;90.10;;;;;;5070837;28;20024;-55
2021/01/03 11:50:23;;;;;;;6.93;2.35;;;23.70;90.10;;;;;;5070587;28;20032;-54
2021/01/03 11:52:51;;;;;;;6.40;2.35;;;23.70;90.10;;;;;;5070353;28;20025;-58
2021/01/03 11:55:20;;;;;;;7.32;2.53;;;23.70;90.10;;;;;;5065783;28;20028;-57
2021/01/03 11:57:48;;;;;;;6.65;2.30;;;23.70;90.10;;;;;;5067507;28;20039;-55
2021/01/03 12:00:17;;;;;;;6.60;2.35;;;23.70;90.10;;;;;;5070886;28;20120;-52
2021/01/03 12:02:44;;;;;;;7.35;2.13;;;23.70;90.10;;;;;;5070508;28;20020;-54
2021/01/03 12:05:18;;;;;;;5.03;2.20;;;23.60;90.10;;;;;;5066207;28;20056;-53
2021/01/03 12:07:45;;;;;;;7.30;2.10;;;23.70;90.10;;;;;;5070034;28;20490;-53
2021/01/03 12:10:13;;;;;;;8.73;2.35;;;23.70;90.10;;;;;;5070789;28;20494;-49
2021/01/03 12:12:40;;;;;;;5.85;2.17;;;23.70;90.10;;;;;;5070717;28;20028;-57
2021/01/03 12:15:08;;;;;;;6.15;2.33;;;23.60;90.00;;;;;;5065724;28;20074;-51
2021/01/03 12:17:36;;;;;;;5.95;2.40;;;23.60;90.00;;;;;;5069671;28;20120;-54
2021/01/03 12:20:05;;;;;;;7.25;2.20;;;23.60;90.00;;;;;;5069186;28;20123;-54
2021/01/03 12:22:35;;;;;;;5.15;1.95;;;23.60;90.00;;;;;;5070427;28;20020;-62
2021/01/03 12:25:03;;;;;;;7.45;2.55;;;23.60;90.00;;;;;;5065253;28;20488;-64
2021/01/03 12:27:30;;;;;;;5.03;2.28;;;23.60;90.00;;;;;;5069628;28;20060;-61
2021/01/03 12:29:58;;;;;;;6.70;2.15;;;23.60;90.00;;;;;;5070480;28;20025;-51
2021/01/03 12:32:25;;;;;;;5.53;2.40;;;23.60;90.00;;;;;;5066711;28;20190;-56
2021/01/03 12:34:52;;;;;;;10.07;2.58;;;23.60;90.00;;;;;;5064401;28;20107;-58
2021/01/03 12:37:21;;;;;;;6.82;2.42;;;23.60;90.00;;;;;;5069807;28;20040;-53
2021/01/03 12:39:49;;;;;;;4.82;2.00;;;23.60;90.00;;;;;;5069389;28;20021;-53
2021/01/03 12:42:19;;;;;;;6.65;2.40;;;23.60;90.00;;;;;;5070192;28;20078;-55
2021/01/03 12:44:48;;;;;;;8.10;2.40;;;23.60;90.00;;;;;;5064993;28;20029;-51
2021/01/03 12:47:17;;;;;;;9.18;2.38;;;23.60;90.00;;;;;;5069659;28;20033;-57
2021/01/03 12:49:45;;;;;;;7.28;1.98;;;23.60;90.00;;;;;;5070182;28;20032;-53
2021/01/03 12:52:12;;;;;;;5.75;2.20;;;23.60;90.00;;;;;;5070092;28;20052;-54
2021/01/03 12:54:39;;;;;;;4.80;1.70;;;23.60;90.00;;;;;;5065537;28;20272;-53
2021/01/03 12:57:07;;;;;;;8.18;2.50;;;23.60;90.00;;;;;;5069628;28;20028;-52
2021/01/03 12:59:34;;;;;;;6.47;2.08;;;23.50;90.00;;;;;;5070331;28;20021;-56
2021/01/03 13:02:01;;;;;;;7.30;2.28;;;23.50;89.90;;;;;;5070201;28;20115;-56
2021/01/03 13:04:29;;;;;;;3.88;1.73;;;23.50;89.90;;;;;;5065087;28;20016;-54
2021/01/03 13:06:56;;;;;;;4.28;2.00;;;23.50;90.00;;;;;;5069494;28;20028;-60
2021/01/03 13:09:23;;;;;;;9.20;2.60;;;23.50;89.90;;;;;;5070211;28;20035;-50
2021/01/03 13:11:51;;;;;;;6.60;2.30;;;23.50;89.90;;;;;;5070241;28;20523;-49
2021/01/03 13:14:19;;;;;;;5.53;1.90;;;23.50;89.90;;;;;;5065458;28;20499;-48
2021/01/03 13:16:47;;;;;;;3.90;1.75;;;23.50;89.90;;;;;;5069393;28;20028;-47
2021/01/03 13:19:14;;;;;;;4.65;1.98;;;23.50;89.80;;;;;;5072564;28;20364;-53